sensor_id;sensor_type;location;lat;lon;timestamp;pressure;altitude;pressure_sealevel;temperature;humidity
70730;BME280;58315;53.336;55.932;2023-03-14T00:01:16;99942.81;;;2.81;56.10
70730;BME280;58315;53.336;55.932;2023-03-14T00:03:43;99956.34;;;2.72;56.24
70730;BME280;58315;53.336;55.932;2023-03-14T00:06:10;99971.47;;;2.82;56.56
70730;BME280;58315;53.336;55.932;2023-03-14T00:08:36;99963.78;;;2.79;57.06
70730;BME280;58315;53.336;55.932;2023-03-14T00:11:29;99977.13;;;2.73;56.27
70730;BME280;58315;53.336;55.932;2023-03-14T00:13:55;99975.38;;;2.74;56.38
70730;BME280;58315;53.336;55.932;2023-03-14T00:16:21;99977.53;;;2.65;55.82
70730;BME280;58315;53.336;55.932;2023-03-14T00:18:47;99967.78;;;2.69;56.49
70730;BME280;58315;53.336;55.932;2023-03-14T00:21:13;99976.16;;;2.76;56.36
70730;BME280;58315;53.336;55.932;2023-03-14T00:23:41;99979.13;;;2.85;56.41
70730;BME280;58315;53.336;55.932;2023-03-14T00:26:13;99993.09;;;2.84;56.03
70730;BME280;58315;53.336;55.932;2023-03-14T00:28:41;100004.69;;;2.79;55.88
70730;BME280;58315;53.336;55.932;2023-03-14T00:31:10;100001.84;;;2.83;55.68
70730;BME280;58315;53.336;55.932;2023-03-14T00:33:37;100003.38;;;2.87;55.27
70730;BME280;58315;53.336;55.932;2023-03-14T00:36:05;100009.38;;;2.72;54.53
70730;BME280;58315;53.336;55.932;2023-03-14T00:38:32;100012.94;;;2.54;54.42
70730;BME280;58315;53.336;55.932;2023-03-14T00:40:58;100007.16;;;2.47;54.65
70730;BME280;58315;53.336;55.932;2023-03-14T00:43:25;100027.03;;;2.32;53.92
70730;BME280;58315;53.336;55.932;2023-03-14T00:45:52;100016.44;;;2.35;55.10
70730;BME280;58315;53.336;55.932;2023-03-14T00:48:19;100015.91;;;2.46;54.82
70730;BME280;58315;53.336;55.932;2023-03-14T00:50:46;100022.66;;;2.50;54.70
70730;BME280;58315;53.336;55.932;2023-03-14T00:53:14;100029.50;;;2.53;54.38
70730;BME280;58315;53.336;55.932;2023-03-14T00:55:42;100041.22;;;2.61;54.56
70730;BME280;58315;53.336;55.932;2023-03-14T00:58:09;100044.00;;;2.58;55.39
70730;BME280;58315;53.336;55.932;2023-03-14T01:00:36;100055.59;;;2.53;54.90
70730;BME280;58315;53.336;55.932;2023-03-14T01:03:02;100052.13;;;2.52;55.24
70730;BME280;58315;53.336;55.932;2023-03-14T01:05:28;100058.66;;;2.61;55.30
70730;BME280;58315;53.336;55.932;2023-03-14T01:07:54;100067.94;;;2.66;55.30
70730;BME280;58315;53.336;55.932;2023-03-14T01:10:20;100060.72;;;2.72;55.29
70730;BME280;58315;53.336;55.932;2023-03-14T01:12:46;100069.84;;;2.63;54.98
70730;BME280;58315;53.336;55.932;2023-03-14T01:15:12;100064.41;;;2.68;55.11
70730;BME280;58315;53.336;55.932;2023-03-14T01:17:38;100068.16;;;2.62;55.29
70730;BME280;58315;53.336;55.932;2023-03-14T01:20:07;100059.94;;;2.52;55.48
70730;BME280;58315;53.336;55.932;2023-03-14T01:22:37;100062.63;;;2.51;55.49
70730;BME280;58315;53.336;55.932;2023-03-14T01:25:08;100072.63;;;2.42;55.17
70730;BME280;58315;53.336;55.932;2023-03-14T01:27:34;100077.28;;;2.36;55.73
70730;BME280;58315;53.336;55.932;2023-03-14T01:30:00;100082.97;;;2.44;56.07
70730;BME280;58315;53.336;55.932;2023-03-14T01:32:26;100086.34;;;2.46;55.72
70730;BME280;58315;53.336;55.932;2023-03-14T01:34:52;100093.94;;;2.51;56.21
70730;BME280;58315;53.336;55.932;2023-03-14T01:37:19;100096.09;;;2.42;55.86
70730;BME280;58315;53.336;55.932;2023-03-14T01:39:46;100124.31;;;2.52;56.39
70730;BME280;58315;53.336;55.932;2023-03-14T01:42:15;100124.50;;;2.49;56.00
70730;BME280;58315;53.336;55.932;2023-03-14T01:44:53;100123.88;;;2.61;56.29
70730;BME280;58315;53.336;55.932;2023-03-14T01:47:20;100122.88;;;2.46;55.64
70730;BME280;58315;53.336;55.932;2023-03-14T01:49:51;100132.19;;;2.33;56.26
70730;BME280;58315;53.336;55.932;2023-03-14T01:55:04;100139.09;;;2.34;56.13
70730;BME280;58315;53.336;55.932;2023-03-14T01:57:44;100144.59;;;2.28;56.13
70730;BME280;58315;53.336;55.932;2023-03-14T02:00:14;100152.09;;;1.98;55.27
70730;BME280;58315;53.336;55.932;2023-03-14T02:02:45;100145.81;;;2.02;55.35
70730;BME280;58315;53.336;55.932;2023-03-14T02:05:17;100153.78;;;1.99;55.62
70730;BME280;58315;53.336;55.932;2023-03-14T02:07:52;100158.69;;;2.05;54.75
70730;BME280;58315;53.336;55.932;2023-03-14T02:10:29;100140.81;;;1.78;54.13
70730;BME280;58315;53.336;55.932;2023-03-14T02:13:01;100164.16;;;1.61;55.03
70730;BME280;58315;53.336;55.932;2023-03-14T02:15:48;100164.78;;;1.47;55.18
70730;BME280;58315;53.336;55.932;2023-03-14T02:18:51;100164.25;;;1.39;55.64
70730;BME280;58315;53.336;55.932;2023-03-14T02:21:55;100167.72;;;1.39;54.87
70730;BME280;58315;53.336;55.932;2023-03-14T02:24:35;100181.13;;;1.30;54.39
70730;BME280;58315;53.336;55.932;2023-03-14T02:27:14;100186.56;;;1.24;53.83
70730;BME280;58315;53.336;55.932;2023-03-14T02:30:00;100179.47;;;1.28;53.45
70730;BME280;58315;53.336;55.932;2023-03-14T02:32:29;100179.88;;;1.39;54.05
70730;BME280;58315;53.336;55.932;2023-03-14T02:34:57;100174.47;;;1.23;52.99
70730;BME280;58315;53.336;55.932;2023-03-14T02:40:12;100188.00;;;1.31;52.45
70730;BME280;58315;53.336;55.932;2023-03-14T02:42:39;100189.97;;;1.26;51.62
70730;BME280;58315;53.336;55.932;2023-03-14T02:47:40;100204.75;;;1.26;52.23
70730;BME280;58315;53.336;55.932;2023-03-14T02:50:12;100207.19;;;1.08;52.18
70730;BME280;58315;53.336;55.932;2023-03-14T02:52:39;100202.00;;;1.08;52.33
70730;BME280;58315;53.336;55.932;2023-03-14T02:55:07;100203.63;;;1.31;52.78
70730;BME280;58315;53.336;55.932;2023-03-14T02:57:34;100211.63;;;1.27;52.28
70730;BME280;58315;53.336;55.932;2023-03-14T03:00:01;100220.56;;;1.21;52.54
70730;BME280;58315;53.336;55.932;2023-03-14T03:02:32;100217.81;;;1.24;53.13
70730;BME280;58315;53.336;55.932;2023-03-14T03:04:58;100220.13;;;1.32;53.60
70730;BME280;58315;53.336;55.932;2023-03-14T03:07:24;100226.88;;;1.36;53.05
70730;BME280;58315;53.336;55.932;2023-03-14T03:09:51;100226.09;;;1.34;52.75
70730;BME280;58315;53.336;55.932;2023-03-14T03:12:17;100226.88;;;1.36;52.67
70730;BME280;58315;53.336;55.932;2023-03-14T03:14:44;100231.03;;;1.19;52.76
70730;BME280;58315;53.336;55.932;2023-03-14T03:17:10;100234.16;;;1.28;52.76
70730;BME280;58315;53.336;55.932;2023-03-14T03:19:37;100236.84;;;1.26;53.04
70730;BME280;58315;53.336;55.932;2023-03-14T03:22:03;100237.69;;;1.27;53.15
70730;BME280;58315;53.336;55.932;2023-03-14T03:24:29;100235.06;;;1.27;52.96
70730;BME280;58315;53.336;55.932;2023-03-14T03:26:55;100244.88;;;1.20;53.24
70730;BME280;58315;53.336;55.932;2023-03-14T03:29:21;100244.25;;;1.15;53.50
70730;BME280;58315;53.336;55.932;2023-03-14T03:31:48;100243.19;;;1.19;53.47
70730;BME280;58315;53.336;55.932;2023-03-14T03:34:14;100256.25;;;1.39;53.93
70730;BME280;58315;53.336;55.932;2023-03-14T03:36:41;100247.44;;;1.42;53.06
70730;BME280;58315;53.336;55.932;2023-03-14T03:39:07;100252.84;;;1.37;52.33
70730;BME280;58315;53.336;55.932;2023-03-14T03:41:33;100259.91;;;1.35;52.04
70730;BME280;58315;53.336;55.932;2023-03-14T03:44:00;100265.63;;;1.43;52.71
70730;BME280;58315;53.336;55.932;2023-03-14T03:46:26;100257.50;;;1.51;52.82
70730;BME280;58315;53.336;55.932;2023-03-14T03:48:55;100265.50;;;1.47;52.31
70730;BME280;58315;53.336;55.932;2023-03-14T03:51:22;100267.22;;;1.26;52.48
70730;BME280;58315;53.336;55.932;2023-03-14T03:53:48;100259.03;;;1.35;53.04
70730;BME280;58315;53.336;55.932;2023-03-14T03:56:18;100258.59;;;1.45;52.57
70730;BME280;58315;53.336;55.932;2023-03-14T03:58:45;100266.41;;;1.45;52.35
70730;BME280;58315;53.336;55.932;2023-03-14T04:01:11;100274.53;;;1.38;52.04
70730;BME280;58315;53.336;55.932;2023-03-14T04:03:37;100281.50;;;1.37;52.20
70730;BME280;58315;53.336;55.932;2023-03-14T04:06:08;100288.16;;;1.44;52.47
70730;BME280;58315;53.336;55.932;2023-03-14T04:08:37;100299.91;;;1.33;52.78
70730;BME280;58315;53.336;55.932;2023-03-14T04:11:05;100297.50;;;1.28;52.18
70730;BME280;58315;53.336;55.932;2023-03-14T04:13:51;100311.09;;;1.14;51.79
70730;BME280;58315;53.336;55.932;2023-03-14T04:16:20;100307.63;;;1.14;52.05
70730;BME280;58315;53.336;55.932;2023-03-14T04:18:48;100312.16;;;1.09;51.93
70730;BME280;58315;53.336;55.932;2023-03-14T04:21:15;100313.38;;;1.00;51.66
70730;BME280;58315;53.336;55.932;2023-03-14T04:23:45;100328.75;;;0.84;52.06
70730;BME280;58315;53.336;55.932;2023-03-14T04:26:11;100332.09;;;0.88;51.91
70730;BME280;58315;53.336;55.932;2023-03-14T04:28:37;100337.63;;;0.79;51.86
70730;BME280;58315;53.336;55.932;2023-03-14T04:31:19;100339.94;;;0.86;52.52
70730;BME280;58315;53.336;55.932;2023-03-14T04:33:46;100345.38;;;0.57;52.50
70730;BME280;58315;53.336;55.932;2023-03-14T04:36:15;100347.41;;;0.48;52.91
70730;BME280;58315;53.336;55.932;2023-03-14T04:38:41;100341.09;;;0.56;53.04
70730;BME280;58315;53.336;55.932;2023-03-14T04:41:08;100347.06;;;0.58;53.44
70730;BME280;58315;53.336;55.932;2023-03-14T04:43:35;100353.06;;;0.60;52.93
70730;BME280;58315;53.336;55.932;2023-03-14T04:46:05;100360.03;;;0.59;53.01
70730;BME280;58315;53.336;55.932;2023-03-14T04:48:31;100375.25;;;0.70;52.42
70730;BME280;58315;53.336;55.932;2023-03-14T04:50:58;100361.66;;;0.62;52.58
70730;BME280;58315;53.336;55.932;2023-03-14T04:53:27;100369.41;;;0.87;53.11
70730;BME280;58315;53.336;55.932;2023-03-14T04:55:55;100367.97;;;1.45;52.46
70730;BME280;58315;53.336;55.932;2023-03-14T04:58:24;100375.44;;;2.36;51.48
70730;BME280;58315;53.336;55.932;2023-03-14T05:00:52;100383.28;;;3.50;50.38
70730;BME280;58315;53.336;55.932;2023-03-14T05:03:35;100387.44;;;4.41;48.07
70730;BME280;58315;53.336;55.932;2023-03-14T05:06:22;100389.78;;;5.27;46.80
70730;BME280;58315;53.336;55.932;2023-03-14T05:08:51;100391.13;;;5.80;45.88
70730;BME280;58315;53.336;55.932;2023-03-14T05:11:30;100399.91;;;6.25;43.81
70730;BME280;58315;53.336;55.932;2023-03-14T05:14:00;100393.66;;;6.85;42.62
70730;BME280;58315;53.336;55.932;2023-03-14T05:16:47;100399.88;;;7.25;41.84
70730;BME280;58315;53.336;55.932;2023-03-14T05:19:25;100404.81;;;7.71;40.46
70730;BME280;58315;53.336;55.932;2023-03-14T05:22:10;100415.75;;;8.05;40.52
70730;BME280;58315;53.336;55.932;2023-03-14T05:25:06;100416.38;;;8.74;40.07
70730;BME280;58315;53.336;55.932;2023-03-14T05:28:10;100413.81;;;9.35;36.91
70730;BME280;58315;53.336;55.932;2023-03-14T05:31:06;100416.00;;;9.41;36.23
70730;BME280;58315;53.336;55.932;2023-03-14T05:33:46;100426.13;;;9.71;36.62
70730;BME280;58315;53.336;55.932;2023-03-14T05:36:24;100418.38;;;9.81;35.36
70730;BME280;58315;53.336;55.932;2023-03-14T05:38:52;100417.84;;;10.00;36.25
70730;BME280;58315;53.336;55.932;2023-03-14T05:41:48;100429.00;;;9.44;35.89
70730;BME280;58315;53.336;55.932;2023-03-14T05:44:29;100432.28;;;9.35;36.44
70730;BME280;58315;53.336;55.932;2023-03-14T05:47:04;100433.72;;;9.39;36.47
70730;BME280;58315;53.336;55.932;2023-03-14T05:49:49;100443.03;;;8.82;36.09
70730;BME280;58315;53.336;55.932;2023-03-14T05:52:36;100440.59;;;8.41;37.22
70730;BME280;58315;53.336;55.932;2023-03-14T05:55:33;100447.19;;;7.40;37.88
70730;BME280;58315;53.336;55.932;2023-03-14T05:58:29;100442.72;;;7.13;37.98
70730;BME280;58315;53.336;55.932;2023-03-14T06:01:01;100433.22;;;6.68;39.24
70730;BME280;58315;53.336;55.932;2023-03-14T06:03:44;100444.94;;;5.72;39.80
70730;BME280;58315;53.336;55.932;2023-03-14T06:06:10;100458.16;;;5.23;40.13
70730;BME280;58315;53.336;55.932;2023-03-14T06:08:37;100459.78;;;4.59;41.90
70730;BME280;58315;53.336;55.932;2023-03-14T06:11:04;100455.25;;;4.10;44.38
70730;BME280;58315;53.336;55.932;2023-03-14T06:13:30;100456.00;;;4.13;43.64
70730;BME280;58315;53.336;55.932;2023-03-14T06:15:56;100457.81;;;3.76;44.89
70730;BME280;58315;53.336;55.932;2023-03-14T06:18:22;100461.50;;;3.72;44.42
70730;BME280;58315;53.336;55.932;2023-03-14T06:20:48;100470.63;;;3.63;45.08
70730;BME280;58315;53.336;55.932;2023-03-14T06:23:22;100467.25;;;3.61;45.57
70730;BME280;58315;53.336;55.932;2023-03-14T06:25:49;100471.44;;;3.27;45.36
70730;BME280;58315;53.336;55.932;2023-03-14T06:28:15;100474.97;;;3.45;45.67
70730;BME280;58315;53.336;55.932;2023-03-14T06:30:41;100487.31;;;3.60;45.37
70730;BME280;58315;53.336;55.932;2023-03-14T06:33:09;100479.56;;;3.40;46.01
70730;BME280;58315;53.336;55.932;2023-03-14T06:35:36;100494.09;;;3.46;45.68
70730;BME280;58315;53.336;55.932;2023-03-14T06:38:02;100485.41;;;3.45;45.46
70730;BME280;58315;53.336;55.932;2023-03-14T06:40:28;100485.91;;;3.16;46.09
70730;BME280;58315;53.336;55.932;2023-03-14T06:43:04;100496.03;;;3.03;45.82
70730;BME280;58315;53.336;55.932;2023-03-14T06:45:32;100495.28;;;2.80;46.99
70730;BME280;58315;53.336;55.932;2023-03-14T06:48:00;100495.63;;;3.12;46.65
70730;BME280;58315;53.336;55.932;2023-03-14T06:50:35;100501.94;;;3.46;46.59
70730;BME280;58315;53.336;55.932;2023-03-14T06:53:02;100501.56;;;3.72;46.62
70730;BME280;58315;53.336;55.932;2023-03-14T06:55:29;100505.56;;;3.79;45.76
70730;BME280;58315;53.336;55.932;2023-03-14T06:57:55;100501.88;;;3.83;45.83
70730;BME280;58315;53.336;55.932;2023-03-14T07:00:21;100507.38;;;3.60;44.85
70730;BME280;58315;53.336;55.932;2023-03-14T07:02:50;100512.38;;;3.46;45.41
70730;BME280;58315;53.336;55.932;2023-03-14T07:05:41;100512.38;;;3.46;45.97
70730;BME280;58315;53.336;55.932;2023-03-14T07:08:08;100517.34;;;3.33;45.90
70730;BME280;58315;53.336;55.932;2023-03-14T07:10:35;100527.09;;;3.48;45.48
70730;BME280;58315;53.336;55.932;2023-03-14T07:13:01;100528.19;;;3.61;45.14
70730;BME280;58315;53.336;55.932;2023-03-14T07:15:31;100513.97;;;3.86;44.59
70730;BME280;58315;53.336;55.932;2023-03-14T07:18:02;100531.16;;;4.09;44.64
70730;BME280;58315;53.336;55.932;2023-03-14T07:20:28;100526.88;;;4.08;44.75
70730;BME280;58315;53.336;55.932;2023-03-14T07:22:56;100519.41;;;4.00;43.90
70730;BME280;58315;53.336;55.932;2023-03-14T07:25:34;100524.81;;;3.78;43.67
70730;BME280;58315;53.336;55.932;2023-03-14T07:28:00;100527.84;;;3.69;44.05
70730;BME280;58315;53.336;55.932;2023-03-14T07:30:26;100535.97;;;3.63;43.96
70730;BME280;58315;53.336;55.932;2023-03-14T07:32:53;100537.94;;;3.58;44.38
70730;BME280;58315;53.336;55.932;2023-03-14T07:35:24;100543.50;;;3.69;44.70
70730;BME280;58315;53.336;55.932;2023-03-14T07:37:51;100550.97;;;3.59;44.46
70730;BME280;58315;53.336;55.932;2023-03-14T07:40:23;100559.84;;;3.74;44.79
70730;BME280;58315;53.336;55.932;2023-03-14T07:42:49;100553.66;;;3.77;43.69
70730;BME280;58315;53.336;55.932;2023-03-14T07:45:26;100549.66;;;3.87;44.99
70730;BME280;58315;53.336;55.932;2023-03-14T07:47:52;100547.53;;;3.76;44.22
70730;BME280;58315;53.336;55.932;2023-03-14T07:50:18;100558.94;;;3.56;45.17
70730;BME280;58315;53.336;55.932;2023-03-14T07:52:44;100560.00;;;3.52;45.19
70730;BME280;58315;53.336;55.932;2023-03-14T07:55:10;100573.56;;;3.60;45.06
70730;BME280;58315;53.336;55.932;2023-03-14T07:57:39;100569.59;;;3.71;44.43
70730;BME280;58315;53.336;55.932;2023-03-14T08:00:05;100578.72;;;3.81;44.55
70730;BME280;58315;53.336;55.932;2023-03-14T08:02:40;100582.88;;;4.04;44.78
70730;BME280;58315;53.336;55.932;2023-03-14T08:05:06;100572.28;;;3.88;44.72
70730;BME280;58315;53.336;55.932;2023-03-14T08:07:32;100584.78;;;4.00;44.45
70730;BME280;58315;53.336;55.932;2023-03-14T08:10:01;100587.97;;;4.07;44.53
70730;BME280;58315;53.336;55.932;2023-03-14T08:12:27;100588.94;;;4.04;44.31
70730;BME280;58315;53.336;55.932;2023-03-14T08:14:53;100593.97;;;3.71;44.46
70730;BME280;58315;53.336;55.932;2023-03-14T08:17:22;100598.34;;;3.52;44.72
70730;BME280;58315;53.336;55.932;2023-03-14T08:19:52;100596.13;;;3.43;44.58
70730;BME280;58315;53.336;55.932;2023-03-14T08:22:18;100614.53;;;3.60;44.52
70730;BME280;58315;53.336;55.932;2023-03-14T08:24:44;100618.47;;;3.50;45.09
70730;BME280;58315;53.336;55.932;2023-03-14T08:27:10;100613.34;;;3.67;45.48
70730;BME280;58315;53.336;55.932;2023-03-14T08:29:35;100614.47;;;3.80;44.41
70730;BME280;58315;53.336;55.932;2023-03-14T08:32:01;100622.00;;;3.49;44.72
70730;BME280;58315;53.336;55.932;2023-03-14T08:34:33;100623.22;;;3.60;45.07
70730;BME280;58315;53.336;55.932;2023-03-14T08:36:59;100626.13;;;3.73;44.25
70730;BME280;58315;53.336;55.932;2023-03-14T08:39:25;100636.16;;;3.82;44.56
70730;BME280;58315;53.336;55.932;2023-03-14T08:41:51;100637.72;;;3.86;44.22
70730;BME280;58315;53.336;55.932;2023-03-14T08:44:17;100623.88;;;3.84;44.54
70730;BME280;58315;53.336;55.932;2023-03-14T08:46:43;100640.31;;;4.05;44.61
70730;BME280;58315;53.336;55.932;2023-03-14T08:49:09;100644.19;;;3.59;44.81
70730;BME280;58315;53.336;55.932;2023-03-14T08:51:35;100648.38;;;3.43;45.20
70730;BME280;58315;53.336;55.932;2023-03-14T08:54:00;100653.03;;;3.36;45.30
70730;BME280;58315;53.336;55.932;2023-03-14T08:56:26;100653.50;;;3.25;45.24
70730;BME280;58315;53.336;55.932;2023-03-14T08:58:52;100652.47;;;3.09;45.96
70730;BME280;58315;53.336;55.932;2023-03-14T09:01:21;100664.97;;;3.21;46.63
70730;BME280;58315;53.336;55.932;2023-03-14T09:03:49;100671.41;;;3.34;45.13
70730;BME280;58315;53.336;55.932;2023-03-14T09:06:16;100664.59;;;3.30;45.64
70730;BME280;58315;53.336;55.932;2023-03-14T09:08:43;100659.38;;;3.30;45.68
70730;BME280;58315;53.336;55.932;2023-03-14T09:11:09;100667.16;;;3.32;45.56
70730;BME280;58315;53.336;55.932;2023-03-14T09:13:36;100676.59;;;3.14;46.04
70730;BME280;58315;53.336;55.932;2023-03-14T09:16:02;100677.25;;;3.39;44.84
70730;BME280;58315;53.336;55.932;2023-03-14T09:18:28;100674.72;;;3.58;45.40
70730;BME280;58315;53.336;55.932;2023-03-14T09:20:55;100664.59;;;3.30;44.37
70730;BME280;58315;53.336;55.932;2023-03-14T09:23:21;100678.31;;;3.35;44.99
70730;BME280;58315;53.336;55.932;2023-03-14T09:25:47;100680.66;;;3.42;44.79
70730;BME280;58315;53.336;55.932;2023-03-14T09:28:13;100688.63;;;3.38;45.70
70730;BME280;58315;53.336;55.932;2023-03-14T09:30:39;100691.03;;;3.43;46.00
70730;BME280;58315;53.336;55.932;2023-03-14T09:33:05;100693.84;;;3.38;45.85
70730;BME280;58315;53.336;55.932;2023-03-14T09:35:33;100699.34;;;3.53;45.17
70730;BME280;58315;53.336;55.932;2023-03-14T09:37:59;100701.97;;;3.53;45.44
70730;BME280;58315;53.336;55.932;2023-03-14T09:40:31;100704.69;;;3.50;44.43
70730;BME280;58315;53.336;55.932;2023-03-14T09:42:59;100716.44;;;3.39;44.89
70730;BME280;58315;53.336;55.932;2023-03-14T09:47:56;100710.19;;;3.64;45.10
70730;BME280;58315;53.336;55.932;2023-03-14T09:50:24;100725.56;;;3.51;44.22
70730;BME280;58315;53.336;55.932;2023-03-14T09:55:49;100728.63;;;3.41;44.05
70730;BME280;58315;53.336;55.932;2023-03-14T09:58:22;100718.28;;;3.58;45.16
70730;BME280;58315;53.336;55.932;2023-03-14T10:00:50;100729.66;;;3.57;45.53
70730;BME280;58315;53.336;55.932;2023-03-14T10:03:26;100721.81;;;3.77;45.69
70730;BME280;58315;53.336;55.932;2023-03-14T10:05:52;100726.47;;;3.90;45.75
70730;BME280;58315;53.336;55.932;2023-03-14T10:08:20;100720.28;;;4.11;45.89
70730;BME280;58315;53.336;55.932;2023-03-14T10:10:46;100717.31;;;4.19;44.29
70730;BME280;58315;53.336;55.932;2023-03-14T10:13:27;100718.09;;;4.40;43.99
70730;BME280;58315;53.336;55.932;2023-03-14T10:18:22;100732.31;;;4.15;44.49
70730;BME280;58315;53.336;55.932;2023-03-14T10:20:52;100730.53;;;3.97;43.66
70730;BME280;58315;53.336;55.932;2023-03-14T10:23:29;100739.09;;;4.00;44.80
70730;BME280;58315;53.336;55.932;2023-03-14T10:26:13;100748.81;;;3.97;44.78
70730;BME280;58315;53.336;55.932;2023-03-14T10:28:44;100751.66;;;3.92;43.92
70730;BME280;58315;53.336;55.932;2023-03-14T10:31:11;100754.06;;;3.76;44.17
70730;BME280;58315;53.336;55.932;2023-03-14T10:33:37;100764.00;;;3.89;43.59
70730;BME280;58315;53.336;55.932;2023-03-14T10:36:24;100765.78;;;3.88;43.69
70730;BME280;58315;53.336;55.932;2023-03-14T10:38:58;100764.84;;;3.89;43.85
70730;BME280;58315;53.336;55.932;2023-03-14T10:41:31;100770.44;;;3.81;44.29
70730;BME280;58315;53.336;55.932;2023-03-14T10:43:59;100778.47;;;3.77;43.91
70730;BME280;58315;53.336;55.932;2023-03-14T10:46:30;100776.75;;;3.76;43.74
70730;BME280;58315;53.336;55.932;2023-03-14T10:49:29;100784.81;;;3.71;44.64
70730;BME280;58315;53.336;55.932;2023-03-14T10:52:01;100790.84;;;3.73;44.27
70730;BME280;58315;53.336;55.932;2023-03-14T10:54:29;100792.66;;;3.92;44.17
70730;BME280;58315;53.336;55.932;2023-03-14T10:57:00;100786.75;;;4.07;43.35
70730;BME280;58315;53.336;55.932;2023-03-14T10:59:34;100797.22;;;4.07;43.81
70730;BME280;58315;53.336;55.932;2023-03-14T11:02:39;100803.56;;;4.20;43.70
70730;BME280;58315;53.336;55.932;2023-03-14T11:05:31;100805.28;;;4.21;44.00
70730;BME280;58315;53.336;55.932;2023-03-14T11:08:09;100797.69;;;4.35;43.65
70730;BME280;58315;53.336;55.932;2023-03-14T11:10:43;100803.41;;;4.44;43.18
70730;BME280;58315;53.336;55.932;2023-03-14T11:16:04;100799.47;;;4.54;43.99
70730;BME280;58315;53.336;55.932;2023-03-14T11:19:08;100809.00;;;4.74;43.54
70730;BME280;58315;53.336;55.932;2023-03-14T11:21:51;100809.41;;;4.46;43.30
70730;BME280;58315;53.336;55.932;2023-03-14T11:27:31;100813.25;;;4.76;43.51
70730;BME280;58315;53.336;55.932;2023-03-14T11:29:58;100812.53;;;4.54;43.19
70730;BME280;58315;53.336;55.932;2023-03-14T11:34:59;100816.06;;;4.53;43.17
70730;BME280;58315;53.336;55.932;2023-03-14T11:37:34;100818.75;;;4.70;43.15
70730;BME280;58315;53.336;55.932;2023-03-14T11:40:14;100823.03;;;4.54;42.49
70730;BME280;58315;53.336;55.932;2023-03-14T11:42:42;100821.25;;;4.15;43.05
70730;BME280;58315;53.336;55.932;2023-03-14T11:45:37;100816.22;;;3.90;43.50
70730;BME280;58315;53.336;55.932;2023-03-14T11:48:16;100819.56;;;4.14;43.65
70730;BME280;58315;53.336;55.932;2023-03-14T11:50:45;100807.66;;;4.07;43.12
70730;BME280;58315;53.336;55.932;2023-03-14T11:53:34;100813.66;;;4.29;43.37
70730;BME280;58315;53.336;55.932;2023-03-14T11:56:02;100815.50;;;4.46;43.17
70730;BME280;58315;53.336;55.932;2023-03-14T11:58:36;100816.38;;;4.66;42.47
70730;BME280;58315;53.336;55.932;2023-03-14T12:01:08;100815.06;;;4.74;42.45
70730;BME280;58315;53.336;55.932;2023-03-14T12:03:43;100813.09;;;4.42;41.98
70730;BME280;58315;53.336;55.932;2023-03-14T12:06:15;100819.28;;;4.20;42.31
70730;BME280;58315;53.336;55.932;2023-03-14T12:08:54;100815.13;;;4.35;42.76
70730;BME280;58315;53.336;55.932;2023-03-14T12:13:58;100844.34;;;4.45;42.23
70730;BME280;58315;53.336;55.932;2023-03-14T12:18:51;100837.22;;;4.48;42.94
70730;BME280;58315;53.336;55.932;2023-03-14T12:21:18;100835.66;;;4.44;42.62
70730;BME280;58315;53.336;55.932;2023-03-14T12:23:50;100825.41;;;4.40;42.71
70730;BME280;58315;53.336;55.932;2023-03-14T12:26:24;100827.88;;;4.43;42.48
70730;BME280;58315;53.336;55.932;2023-03-14T12:29:17;100817.84;;;4.71;42.34
70730;BME280;58315;53.336;55.932;2023-03-14T12:31:47;100832.06;;;4.47;41.42
70730;BME280;58315;53.336;55.932;2023-03-14T12:39:55;100824.78;;;4.14;41.43
70730;BME280;58315;53.336;55.932;2023-03-14T12:45:34;100846.44;;;3.97;42.78
70730;BME280;58315;53.336;55.932;2023-03-14T12:48:08;100843.81;;;4.18;42.56
70730;BME280;58315;53.336;55.932;2023-03-14T12:50:55;100847.88;;;4.25;42.45
70730;BME280;58315;53.336;55.932;2023-03-14T12:58:42;100848.19;;;3.76;41.92
70730;BME280;58315;53.336;55.932;2023-03-14T13:01:16;100853.41;;;3.76;42.35
70730;BME280;58315;53.336;55.932;2023-03-14T13:03:54;100872.00;;;3.70;41.90
70730;BME280;58315;53.336;55.932;2023-03-14T13:11:53;100880.28;;;3.37;42.69
70730;BME280;58315;53.336;55.932;2023-03-14T13:14:19;100879.56;;;3.34;42.89
70730;BME280;58315;53.336;55.932;2023-03-14T13:16:49;100879.75;;;3.29;42.82
70730;BME280;58315;53.336;55.932;2023-03-14T13:19:24;100883.25;;;3.50;43.22
70730;BME280;58315;53.336;55.932;2023-03-14T13:21:58;100888.22;;;3.56;42.64
70730;BME280;58315;53.336;55.932;2023-03-14T13:24:27;100893.16;;;3.42;43.19
70730;BME280;58315;53.336;55.932;2023-03-14T13:26:55;100902.66;;;3.45;44.17
70730;BME280;58315;53.336;55.932;2023-03-14T13:29:29;100899.97;;;3.46;43.75
70730;BME280;58315;53.336;55.932;2023-03-14T13:31:59;100910.06;;;3.33;44.49
70730;BME280;58315;53.336;55.932;2023-03-14T13:34:30;100920.25;;;3.39;43.53
70730;BME280;58315;53.336;55.932;2023-03-14T13:36:57;100915.41;;;3.30;43.49
70730;BME280;58315;53.336;55.932;2023-03-14T13:39:24;100914.72;;;3.25;43.22
70730;BME280;58315;53.336;55.932;2023-03-14T13:41:52;100925.72;;;3.11;43.68
70730;BME280;58315;53.336;55.932;2023-03-14T13:44:26;100930.53;;;3.22;43.70
70730;BME280;58315;53.336;55.932;2023-03-14T13:46:58;100926.59;;;3.34;43.36
70730;BME280;58315;53.336;55.932;2023-03-14T13:49:26;100934.03;;;3.21;43.54
70730;BME280;58315;53.336;55.932;2023-03-14T13:51:54;100926.19;;;3.21;44.71
70730;BME280;58315;53.336;55.932;2023-03-14T13:54:21;100928.34;;;3.33;44.57
70730;BME280;58315;53.336;55.932;2023-03-14T13:56:48;100931.81;;;3.34;44.38
70730;BME280;58315;53.336;55.932;2023-03-14T14:01:47;100949.19;;;3.35;44.45